Ida, Michigan
Current Conditions -  °F | °C
As of 7:16 AM on Saturday 20 Dec 2014 (Local Time) from KTTF Reporting Station
Overcast Overcast  
Wind Chill: 28°   Ceiling: 2500
Heat Index: 28°   Visibility: 10mi
Dew Point: 21°   Wind: 0mph
Humidity: 74%   Direction: NA
Pressure: 30.28"   Gusts: NA
Location:  41.91°N, 83.57°W
Report Text: KTTF 201216Z AUTO 00000KT 10SM OVC025 M02/M06 A3028 RMK AO2
Loading
Personal Weather Stations






























Interactive Weather Map New forecast layout! Learn more

10-Day Weather Forecast

Advertisements
Track Severe Weather on mobile